Palmeirais, Brazil
Current Conditions -  °F | °C
As of 12:00 PM on Wednesday 26 Nov 2014 (Local Time) from SBTE Reporting Station
Broken Clouds Broken Clouds  
Wind Chill: 93°   Ceiling: 3000
Heat Index: 96°   Visibility: 6mi
Dew Point: 66°   Wind: 5mph
Humidity: 41%   Direction: 140°SE
Pressure: 29.8"   Gusts: NA
Location:  5.98°S, 43.06°W
Report Text: SBTE 261500Z 14004KT 9999 BKN030 34/19 Q1009
Loading
Personal Weather Stations






























Interactive Weather Map New forecast layout! Learn more

10-Day Weather Forecast

Advertisements
Track Severe Weather on mobile